Terminal Aerodrome Forecast
Issued by NWS

Current Version | Previous Version | Text Only | Print | Product List | Glossary On
Versions: 1 2 3 4 5 6 7 8 9 10 11 12 13 14 15 16 17 18 19 20 21 22 23 24 25 26
000
FTAK31 PAFA 242336
TAFASC
TAF
PASC 242336Z 2500/2524 08007KT P6SM SCT200
     FM250700 08010KT P6SM SCT010
      TEMPO 2508/2512 BKN010
     FM251200 08010KT 4SM BR OVC010=

USA.gov is the U.S. government's official web portal to all federal, state and local government web resources and services.